sensor_id;sensor_type;location;lat;lon;timestamp;temperature;humidity
46562;DHT22;32289;42.688;23.330;2023-05-10T00:00:38;8.00;99.90
46562;DHT22;32289;42.688;23.330;2023-05-10T00:04:19;8.00;99.90
46562;DHT22;32289;42.688;23.330;2023-05-10T00:08:00;8.00;99.90
46562;DHT22;32289;42.688;23.330;2023-05-10T00:11:40;8.00;99.90
46562;DHT22;32289;42.688;23.330;2023-05-10T00:15:21;8.00;99.90
46562;DHT22;32289;42.688;23.330;2023-05-10T00:19:02;7.90;99.90
46562;DHT22;32289;42.688;23.330;2023-05-10T00:22:42;7.80;99.90
46562;DHT22;32289;42.688;23.330;2023-05-10T00:26:23;7.80;99.90
46562;DHT22;32289;42.688;23.330;2023-05-10T00:30:04;7.80;99.90
46562;DHT22;32289;42.688;23.330;2023-05-10T00:33:45;7.70;99.90
46562;DHT22;32289;42.688;23.330;2023-05-10T00:37:25;7.60;99.90
46562;DHT22;32289;42.688;23.330;2023-05-10T00:41:06;7.60;99.90
46562;DHT22;32289;42.688;23.330;2023-05-10T00:44:47;7.70;99.90
46562;DHT22;32289;42.688;23.330;2023-05-10T00:48:28;7.60;99.90
46562;DHT22;32289;42.688;23.330;2023-05-10T00:52:09;7.60;99.90
46562;DHT22;32289;42.688;23.330;2023-05-10T00:55:50;7.50;99.90
46562;DHT22;32289;42.688;23.330;2023-05-10T00:59:31;7.50;99.90
46562;DHT22;32289;42.688;23.330;2023-05-10T01:03:12;7.50;99.90
46562;DHT22;32289;42.688;23.330;2023-05-10T01:06:53;7.50;99.90
46562;DHT22;32289;42.688;23.330;2023-05-10T01:10:34;7.50;99.90
46562;DHT22;32289;42.688;23.330;2023-05-10T01:14:15;7.50;99.90
46562;DHT22;32289;42.688;23.330;2023-05-10T01:17:58;7.50;99.90
46562;DHT22;32289;42.688;23.330;2023-05-10T01:21:45;7.40;99.90
46562;DHT22;32289;42.688;23.330;2023-05-10T01:41:51;7.30;99.90
46562;DHT22;32289;42.688;23.330;2023-05-10T01:45:39;7.20;99.90
46562;DHT22;32289;42.688;23.330;2023-05-10T01:49:25;7.30;99.90
46562;DHT22;32289;42.688;23.330;2023-05-10T01:53:08;7.30;99.90
46562;DHT22;32289;42.688;23.330;2023-05-10T01:57:03;7.30;99.90
46562;DHT22;32289;42.688;23.330;2023-05-10T02:00:47;7.30;99.90
46562;DHT22;32289;42.688;23.330;2023-05-10T02:04:29;7.30;99.90
46562;DHT22;32289;42.688;23.330;2023-05-10T02:08:11;7.30;99.90
46562;DHT22;32289;42.688;23.330;2023-05-10T02:11:54;7.30;99.90
46562;DHT22;32289;42.688;23.330;2023-05-10T02:15:37;7.30;99.90
46562;DHT22;32289;42.688;23.330;2023-05-10T02:19:20;7.30;99.90
46562;DHT22;32289;42.688;23.330;2023-05-10T02:23:03;7.10;99.90
46562;DHT22;32289;42.688;23.330;2023-05-10T02:26:45;7.00;99.90
46562;DHT22;32289;42.688;23.330;2023-05-10T02:30:28;6.80;99.90
46562;DHT22;32289;42.688;23.330;2023-05-10T02:34:11;6.90;99.90
46562;DHT22;32289;42.688;23.330;2023-05-10T02:37:53;6.80;99.90
46562;DHT22;32289;42.688;23.330;2023-05-10T02:41:35;6.70;99.90
46562;DHT22;32289;42.688;23.330;2023-05-10T02:45:19;6.50;99.90
46562;DHT22;32289;42.688;23.330;2023-05-10T02:49:01;6.40;99.90
46562;DHT22;32289;42.688;23.330;2023-05-10T02:52:47;6.30;99.90
46562;DHT22;32289;42.688;23.330;2023-05-10T02:56:33;6.20;99.90
46562;DHT22;32289;42.688;23.330;2023-05-10T03:00:14;6.20;99.90
46562;DHT22;32289;42.688;23.330;2023-05-10T03:03:55;6.20;99.90
46562;DHT22;32289;42.688;23.330;2023-05-10T03:07:36;6.20;99.90
46562;DHT22;32289;42.688;23.330;2023-05-10T03:15:06;6.30;99.90
46562;DHT22;32289;42.688;23.330;2023-05-10T03:19:24;6.30;99.90
46562;DHT22;32289;42.688;23.330;2023-05-10T03:23:27;6.40;99.90
46562;DHT22;32289;42.688;23.330;2023-05-10T03:27:10;6.40;99.90
46562;DHT22;32289;42.688;23.330;2023-05-10T03:30:52;6.50;99.90
46562;DHT22;32289;42.688;23.330;2023-05-10T03:34:33;6.50;99.90
46562;DHT22;32289;42.688;23.330;2023-05-10T03:38:14;6.50;99.90
46562;DHT22;32289;42.688;23.330;2023-05-10T03:41:55;6.50;99.90
46562;DHT22;32289;42.688;23.330;2023-05-10T03:45:36;6.60;99.90
46562;DHT22;32289;42.688;23.330;2023-05-10T03:49:17;6.60;99.90
46562;DHT22;32289;42.688;23.330;2023-05-10T03:52:57;6.60;99.90
46562;DHT22;32289;42.688;23.330;2023-05-10T03:56:38;6.60;99.90
46562;DHT22;32289;42.688;23.330;2023-05-10T04:00:19;6.60;99.90
46562;DHT22;32289;42.688;23.330;2023-05-10T04:04:00;6.60;99.90
46562;DHT22;32289;42.688;23.330;2023-05-10T04:07:41;6.60;99.90
46562;DHT22;32289;42.688;23.330;2023-05-10T04:11:22;6.60;99.90
46562;DHT22;32289;42.688;23.330;2023-05-10T04:15:03;6.60;99.90
46562;DHT22;32289;42.688;23.330;2023-05-10T04:18:44;6.60;99.90
46562;DHT22;32289;42.688;23.330;2023-05-10T04:22:24;6.60;99.90
46562;DHT22;32289;42.688;23.330;2023-05-10T04:26:05;6.60;99.90
46562;DHT22;32289;42.688;23.330;2023-05-10T04:29:46;6.70;99.90
46562;DHT22;32289;42.688;23.330;2023-05-10T04:33:26;6.70;99.90
46562;DHT22;32289;42.688;23.330;2023-05-10T04:37:07;6.60;99.90
46562;DHT22;32289;42.688;23.330;2023-05-10T04:40:48;6.60;99.90
46562;DHT22;32289;42.688;23.330;2023-05-10T04:44:29;6.60;99.90
46562;DHT22;32289;42.688;23.330;2023-05-10T04:48:10;6.70;99.90
46562;DHT22;32289;42.688;23.330;2023-05-10T04:51:50;6.80;99.90
46562;DHT22;32289;42.688;23.330;2023-05-10T04:55:31;6.80;99.90
46562;DHT22;32289;42.688;23.330;2023-05-10T04:59:12;6.90;99.90
46562;DHT22;32289;42.688;23.330;2023-05-10T05:02:53;7.00;99.90
46562;DHT22;32289;42.688;23.330;2023-05-10T05:06:33;7.10;99.90
46562;DHT22;32289;42.688;23.330;2023-05-10T05:10:14;7.00;99.90
46562;DHT22;32289;42.688;23.330;2023-05-10T05:13:55;7.00;99.90
46562;DHT22;32289;42.688;23.330;2023-05-10T05:17:36;7.10;99.90
46562;DHT22;32289;42.688;23.330;2023-05-10T05:21:17;7.10;99.90
46562;DHT22;32289;42.688;23.330;2023-05-10T05:24:58;7.20;99.90
46562;DHT22;32289;42.688;23.330;2023-05-10T05:28:39;7.20;99.90
46562;DHT22;32289;42.688;23.330;2023-05-10T05:32:20;7.20;99.90
46562;DHT22;32289;42.688;23.330;2023-05-10T05:36:07;7.30;99.90
46562;DHT22;32289;42.688;23.330;2023-05-10T05:39:48;7.20;99.90
46562;DHT22;32289;42.688;23.330;2023-05-10T05:43:29;7.20;99.90
46562;DHT22;32289;42.688;23.330;2023-05-10T05:47:10;7.10;99.90
46562;DHT22;32289;42.688;23.330;2023-05-10T05:50:54;7.10;99.90
46562;DHT22;32289;42.688;23.330;2023-05-10T05:54:35;7.20;99.90
46562;DHT22;32289;42.688;23.330;2023-05-10T05:58:16;7.30;99.90
46562;DHT22;32289;42.688;23.330;2023-05-10T06:01:57;7.40;99.90
46562;DHT22;32289;42.688;23.330;2023-05-10T06:05:37;7.40;99.90
46562;DHT22;32289;42.688;23.330;2023-05-10T06:09:18;7.20;99.90
46562;DHT22;32289;42.688;23.330;2023-05-10T06:12:59;7.20;99.90
46562;DHT22;32289;42.688;23.330;2023-05-10T06:16:40;7.20;99.90
46562;DHT22;32289;42.688;23.330;2023-05-10T06:20:20;7.20;99.90
46562;DHT22;32289;42.688;23.330;2023-05-10T06:24:01;7.10;99.90
46562;DHT22;32289;42.688;23.330;2023-05-10T06:27:43;7.20;99.90
46562;DHT22;32289;42.688;23.330;2023-05-10T06:31:23;7.30;99.90
46562;DHT22;32289;42.688;23.330;2023-05-10T06:35:04;7.40;99.90
46562;DHT22;32289;42.688;23.330;2023-05-10T06:38:45;7.40;99.90
46562;DHT22;32289;42.688;23.330;2023-05-10T06:42:26;7.50;99.90
46562;DHT22;32289;42.688;23.330;2023-05-10T06:46:07;7.60;99.90
46562;DHT22;32289;42.688;23.330;2023-05-10T06:49:48;7.60;99.90
46562;DHT22;32289;42.688;23.330;2023-05-10T06:53:29;7.70;99.90
46562;DHT22;32289;42.688;23.330;2023-05-10T06:57:10;7.70;99.90
46562;DHT22;32289;42.688;23.330;2023-05-10T07:00:51;7.80;99.90
46562;DHT22;32289;42.688;23.330;2023-05-10T07:04:31;7.70;99.90
46562;DHT22;32289;42.688;23.330;2023-05-10T07:08:12;7.80;99.90
46562;DHT22;32289;42.688;23.330;2023-05-10T07:11:53;7.80;99.90
46562;DHT22;32289;42.688;23.330;2023-05-10T07:15:34;7.70;99.90
46562;DHT22;32289;42.688;23.330;2023-05-10T07:19:15;7.80;99.90
46562;DHT22;32289;42.688;23.330;2023-05-10T07:22:55;7.90;99.90
46562;DHT22;32289;42.688;23.330;2023-05-10T07:26:36;7.80;99.90
46562;DHT22;32289;42.688;23.330;2023-05-10T07:30:17;8.00;99.90
46562;DHT22;32289;42.688;23.330;2023-05-10T07:33:57;8.20;99.90
46562;DHT22;32289;42.688;23.330;2023-05-10T07:37:38;8.10;99.90
46562;DHT22;32289;42.688;23.330;2023-05-10T07:41:19;8.10;99.90
46562;DHT22;32289;42.688;23.330;2023-05-10T07:45:01;8.30;99.90
46562;DHT22;32289;42.688;23.330;2023-05-10T07:48:42;8.20;99.90
46562;DHT22;32289;42.688;23.330;2023-05-10T07:52:23;8.20;99.90
46562;DHT22;32289;42.688;23.330;2023-05-10T07:56:26;8.30;99.90
46562;DHT22;32289;42.688;23.330;2023-05-10T08:00:12;8.60;99.90
46562;DHT22;32289;42.688;23.330;2023-05-10T08:03:54;8.50;99.90
46562;DHT22;32289;42.688;23.330;2023-05-10T08:07:34;8.30;99.90
46562;DHT22;32289;42.688;23.330;2023-05-10T08:11:16;8.30;99.90
46562;DHT22;32289;42.688;23.330;2023-05-10T08:14:57;8.40;99.90
46562;DHT22;32289;42.688;23.330;2023-05-10T08:18:39;8.50;99.90
46562;DHT22;32289;42.688;23.330;2023-05-10T08:22:19;8.70;99.90
46562;DHT22;32289;42.688;23.330;2023-05-10T08:26:00;8.60;99.90
46562;DHT22;32289;42.688;23.330;2023-05-10T08:29:41;8.80;99.90
46562;DHT22;32289;42.688;23.330;2023-05-10T08:33:21;8.80;99.90
46562;DHT22;32289;42.688;23.330;2023-05-10T08:37:03;8.70;99.90
46562;DHT22;32289;42.688;23.330;2023-05-10T08:40:44;8.70;99.90
46562;DHT22;32289;42.688;23.330;2023-05-10T08:44:25;8.50;99.90
46562;DHT22;32289;42.688;23.330;2023-05-10T08:48:07;8.30;99.90
46562;DHT22;32289;42.688;23.330;2023-05-10T08:51:52;8.40;99.90
46562;DHT22;32289;42.688;23.330;2023-05-10T08:55:35;8.20;99.90
46562;DHT22;32289;42.688;23.330;2023-05-10T08:59:18;8.60;99.90
46562;DHT22;32289;42.688;23.330;2023-05-10T09:02:59;9.10;99.90
46562;DHT22;32289;42.688;23.330;2023-05-10T09:06:40;8.80;99.90
46562;DHT22;32289;42.688;23.330;2023-05-10T09:10:23;8.90;99.90
46562;DHT22;32289;42.688;23.330;2023-05-10T09:14:06;9.40;99.90
46562;DHT22;32289;42.688;23.330;2023-05-10T09:17:49;9.30;99.90
46562;DHT22;32289;42.688;23.330;2023-05-10T09:21:30;9.40;99.90
46562;DHT22;32289;42.688;23.330;2023-05-10T09:25:14;9.30;99.90
46562;DHT22;32289;42.688;23.330;2023-05-10T09:28:57;9.50;99.90
46562;DHT22;32289;42.688;23.330;2023-05-10T09:32:48;9.10;99.90
46562;DHT22;32289;42.688;23.330;2023-05-10T09:36:28;9.20;99.90
46562;DHT22;32289;42.688;23.330;2023-05-10T09:40:19;9.30;99.90
46562;DHT22;32289;42.688;23.330;2023-05-10T09:44:00;9.40;99.90
46562;DHT22;32289;42.688;23.330;2023-05-10T09:47:40;9.30;99.90
46562;DHT22;32289;42.688;23.330;2023-05-10T09:51:23;9.40;99.90
46562;DHT22;32289;42.688;23.330;2023-05-10T09:55:03;9.60;99.90
46562;DHT22;32289;42.688;23.330;2023-05-10T09:58:45;9.50;99.90
46562;DHT22;32289;42.688;23.330;2023-05-10T10:02:28;9.80;99.90
46562;DHT22;32289;42.688;23.330;2023-05-10T10:06:09;9.70;99.90
46562;DHT22;32289;42.688;23.330;2023-05-10T10:09:51;9.70;99.90
46562;DHT22;32289;42.688;23.330;2023-05-10T10:13:32;9.50;99.90
46562;DHT22;32289;42.688;23.330;2023-05-10T10:17:13;9.70;99.90
46562;DHT22;32289;42.688;23.330;2023-05-10T10:20:54;9.70;99.90
46562;DHT22;32289;42.688;23.330;2023-05-10T10:24:36;9.80;99.90
46562;DHT22;32289;42.688;23.330;2023-05-10T10:32:44;9.80;99.90
46562;DHT22;32289;42.688;23.330;2023-05-10T10:36:28;10.20;99.90
46562;DHT22;32289;42.688;23.330;2023-05-10T10:48:21;10.60;99.90
46562;DHT22;32289;42.688;23.330;2023-05-10T10:56:07;10.70;99.90
46562;DHT22;32289;42.688;23.330;2023-05-10T10:59:49;10.70;99.90
46562;DHT22;32289;42.688;23.330;2023-05-10T11:03:30;10.60;99.90
46562;DHT22;32289;42.688;23.330;2023-05-10T11:07:17;10.70;99.90
46562;DHT22;32289;42.688;23.330;2023-05-10T11:14:40;10.70;99.90
46562;DHT22;32289;42.688;23.330;2023-05-10T11:18:24;10.80;99.90
46562;DHT22;32289;42.688;23.330;2023-05-10T11:25:46;11.10;99.90
46562;DHT22;32289;42.688;23.330;2023-05-10T11:29:27;11.20;99.90
46562;DHT22;32289;42.688;23.330;2023-05-10T11:33:08;11.10;99.90
46562;DHT22;32289;42.688;23.330;2023-05-10T11:36:52;11.00;99.90
46562;DHT22;32289;42.688;23.330;2023-05-10T11:40:34;11.10;99.90
46562;DHT22;32289;42.688;23.330;2023-05-10T11:44:15;10.90;99.90
46562;DHT22;32289;42.688;23.330;2023-05-10T11:47:57;10.60;99.90
46562;DHT22;32289;42.688;23.330;2023-05-10T11:51:38;10.80;99.90
46562;DHT22;32289;42.688;23.330;2023-05-10T11:55:19;10.90;99.90
46562;DHT22;32289;42.688;23.330;2023-05-10T11:59:00;10.70;99.90
46562;DHT22;32289;42.688;23.330;2023-05-10T12:02:43;10.80;99.90
46562;DHT22;32289;42.688;23.330;2023-05-10T12:06:30;10.70;99.90
46562;DHT22;32289;42.688;23.330;2023-05-10T12:10:13;11.00;99.90
46562;DHT22;32289;42.688;23.330;2023-05-10T12:13:58;11.00;99.90
46562;DHT22;32289;42.688;23.330;2023-05-10T12:17:39;10.90;99.90
46562;DHT22;32289;42.688;23.330;2023-05-10T12:21:21;10.60;99.90
46562;DHT22;32289;42.688;23.330;2023-05-10T12:25:02;10.80;99.90
46562;DHT22;32289;42.688;23.330;2023-05-10T12:28:43;11.00;99.90
46562;DHT22;32289;42.688;23.330;2023-05-10T12:32:40;10.90;99.90
46562;DHT22;32289;42.688;23.330;2023-05-10T12:36:23;10.80;99.90
46562;DHT22;32289;42.688;23.330;2023-05-10T12:40:06;10.70;99.90
46562;DHT22;32289;42.688;23.330;2023-05-10T12:43:48;10.70;99.90
46562;DHT22;32289;42.688;23.330;2023-05-10T12:47:29;10.80;99.90
46562;DHT22;32289;42.688;23.330;2023-05-10T12:51:10;10.80;99.90
46562;DHT22;32289;42.688;23.330;2023-05-10T12:54:53;10.80;99.90
46562;DHT22;32289;42.688;23.330;2023-05-10T12:58:34;10.90;99.90
46562;DHT22;32289;42.688;23.330;2023-05-10T13:02:15;11.10;99.90
46562;DHT22;32289;42.688;23.330;2023-05-10T13:05:58;10.90;99.90
46562;DHT22;32289;42.688;23.330;2023-05-10T13:09:39;10.80;99.90
46562;DHT22;32289;42.688;23.330;2023-05-10T13:13:20;10.90;99.90
46562;DHT22;32289;42.688;23.330;2023-05-10T13:17:00;10.90;99.90
46562;DHT22;32289;42.688;23.330;2023-05-10T13:20:41;11.00;99.90
46562;DHT22;32289;42.688;23.330;2023-05-10T13:24:23;10.80;99.90
46562;DHT22;32289;42.688;23.330;2023-05-10T13:28:04;10.80;99.90
46562;DHT22;32289;42.688;23.330;2023-05-10T13:31:45;10.80;99.90
46562;DHT22;32289;42.688;23.330;2023-05-10T13:35:25;10.80;99.90
46562;DHT22;32289;42.688;23.330;2023-05-10T13:39:06;10.80;99.90
46562;DHT22;32289;42.688;23.330;2023-05-10T13:42:47;10.70;99.90
46562;DHT22;32289;42.688;23.330;2023-05-10T13:46:29;10.70;99.90
46562;DHT22;32289;42.688;23.330;2023-05-10T13:50:10;10.90;99.90
46562;DHT22;32289;42.688;23.330;2023-05-10T13:53:50;10.80;99.90
46562;DHT22;32289;42.688;23.330;2023-05-10T13:57:32;11.00;99.90
46562;DHT22;32289;42.688;23.330;2023-05-10T14:01:14;10.90;99.90
46562;DHT22;32289;42.688;23.330;2023-05-10T14:04:55;10.80;99.90
46562;DHT22;32289;42.688;23.330;2023-05-10T14:08:36;10.80;99.90
46562;DHT22;32289;42.688;23.330;2023-05-10T14:12:17;10.80;99.90
46562;DHT22;32289;42.688;23.330;2023-05-10T14:15:57;10.80;99.90
46562;DHT22;32289;42.688;23.330;2023-05-10T14:19:40;10.70;99.90
46562;DHT22;32289;42.688;23.330;2023-05-10T14:23:22;10.60;99.90
46562;DHT22;32289;42.688;23.330;2023-05-10T14:27:06;10.40;99.90
46562;DHT22;32289;42.688;23.330;2023-05-10T14:30:47;10.60;99.90
46562;DHT22;32289;42.688;23.330;2023-05-10T14:34:28;10.40;99.90
46562;DHT22;32289;42.688;23.330;2023-05-10T14:38:08;10.60;99.90
46562;DHT22;32289;42.688;23.330;2023-05-10T14:41:49;10.50;99.90
46562;DHT22;32289;42.688;23.330;2023-05-10T14:45:31;10.50;99.90
46562;DHT22;32289;42.688;23.330;2023-05-10T14:49:13;10.60;99.90
46562;DHT22;32289;42.688;23.330;2023-05-10T14:57:17;10.80;99.90
46562;DHT22;32289;42.688;23.330;2023-05-10T15:00:57;10.80;99.90
46562;DHT22;32289;42.688;23.330;2023-05-10T15:04:38;10.80;99.90
46562;DHT22;32289;42.688;23.330;2023-05-10T15:08:19;10.90;99.90
46562;DHT22;32289;42.688;23.330;2023-05-10T15:11:59;10.80;99.90
46562;DHT22;32289;42.688;23.330;2023-05-10T15:15:41;10.70;99.90
46562;DHT22;32289;42.688;23.330;2023-05-10T15:19:22;10.80;99.90
46562;DHT22;32289;42.688;23.330;2023-05-10T15:23:03;10.70;99.90
46562;DHT22;32289;42.688;23.330;2023-05-10T15:26:43;10.60;99.90
46562;DHT22;32289;42.688;23.330;2023-05-10T15:30:24;10.70;99.90
46562;DHT22;32289;42.688;23.330;2023-05-10T15:34:05;10.70;99.90
46562;DHT22;32289;42.688;23.330;2023-05-10T15:37:47;10.70;99.90
46562;DHT22;32289;42.688;23.330;2023-05-10T15:41:28;10.60;99.90
46562;DHT22;32289;42.688;23.330;2023-05-10T15:45:10;10.60;99.90
46562;DHT22;32289;42.688;23.330;2023-05-10T15:48:51;10.60;99.90
46562;DHT22;32289;42.688;23.330;2023-05-10T15:52:32;10.40;99.90
46562;DHT22;32289;42.688;23.330;2023-05-10T15:56:12;10.60;99.90
46562;DHT22;32289;42.688;23.330;2023-05-10T15:59:53;10.60;99.90
46562;DHT22;32289;42.688;23.330;2023-05-10T16:03:34;10.50;99.90
46562;DHT22;32289;42.688;23.330;2023-05-10T16:07:15;10.50;99.90
46562;DHT22;32289;42.688;23.330;2023-05-10T16:10:56;10.60;99.90
46562;DHT22;32289;42.688;23.330;2023-05-10T16:14:36;10.60;99.90
46562;DHT22;32289;42.688;23.330;2023-05-10T16:18:17;10.60;99.90
46562;DHT22;32289;42.688;23.330;2023-05-10T16:21:58;10.60;99.90
46562;DHT22;32289;42.688;23.330;2023-05-10T16:25:38;10.50;99.90
46562;DHT22;32289;42.688;23.330;2023-05-10T16:29:19;10.50;99.90
46562;DHT22;32289;42.688;23.330;2023-05-10T16:33:00;10.50;99.90
46562;DHT22;32289;42.688;23.330;2023-05-10T16:36:41;10.30;99.90
46562;DHT22;32289;42.688;23.330;2023-05-10T16:40:21;10.40;99.90
46562;DHT22;32289;42.688;23.330;2023-05-10T16:44:03;10.40;99.90
46562;DHT22;32289;42.688;23.330;2023-05-10T16:47:44;10.40;99.90
46562;DHT22;32289;42.688;23.330;2023-05-10T16:51:25;10.40;99.90
46562;DHT22;32289;42.688;23.330;2023-05-10T16:55:06;10.50;99.90
46562;DHT22;32289;42.688;23.330;2023-05-10T16:58:47;10.40;99.90
46562;DHT22;32289;42.688;23.330;2023-05-10T17:02:31;10.30;99.90
46562;DHT22;32289;42.688;23.330;2023-05-10T17:06:11;10.30;99.90
46562;DHT22;32289;42.688;23.330;2023-05-10T17:09:53;10.40;99.90
46562;DHT22;32289;42.688;23.330;2023-05-10T17:13:34;10.40;99.90
46562;DHT22;32289;42.688;23.330;2023-05-10T17:17:14;10.20;99.90
46562;DHT22;32289;42.688;23.330;2023-05-10T17:20:55;10.20;99.90
46562;DHT22;32289;42.688;23.330;2023-05-10T17:24:36;10.20;99.90
46562;DHT22;32289;42.688;23.330;2023-05-10T17:28:16;10.20;99.90
46562;DHT22;32289;42.688;23.330;2023-05-10T17:31:58;10.20;99.90
46562;DHT22;32289;42.688;23.330;2023-05-10T17:35:38;10.10;99.90
46562;DHT22;32289;42.688;23.330;2023-05-10T17:39:19;10.20;99.90
46562;DHT22;32289;42.688;23.330;2023-05-10T17:43:00;10.10;99.90
46562;DHT22;32289;42.688;23.330;2023-05-10T17:46:41;10.10;99.90
46562;DHT22;32289;42.688;23.330;2023-05-10T17:50:22;10.10;99.90
46562;DHT22;32289;42.688;23.330;2023-05-10T17:54:02;10.10;99.90
46562;DHT22;32289;42.688;23.330;2023-05-10T17:57:43;10.20;99.90
46562;DHT22;32289;42.688;23.330;2023-05-10T18:01:24;10.20;99.90
46562;DHT22;32289;42.688;23.330;2023-05-10T18:05:05;10.20;99.90
46562;DHT22;32289;42.688;23.330;2023-05-10T18:08:45;10.10;99.90
46562;DHT22;32289;42.688;23.330;2023-05-10T18:12:26;10.10;99.90
46562;DHT22;32289;42.688;23.330;2023-05-10T18:16:08;10.10;99.90
46562;DHT22;32289;42.688;23.330;2023-05-10T18:19:51;10.10;99.90
46562;DHT22;32289;42.688;23.330;2023-05-10T18:23:32;10.10;99.90
46562;DHT22;32289;42.688;23.330;2023-05-10T18:27:15;10.20;99.90
46562;DHT22;32289;42.688;23.330;2023-05-10T18:30:57;10.10;99.90
46562;DHT22;32289;42.688;23.330;2023-05-10T18:34:40;10.10;99.90
46562;DHT22;32289;42.688;23.330;2023-05-10T18:38:21;10.10;99.90
46562;DHT22;32289;42.688;23.330;2023-05-10T18:42:06;10.10;99.90
46562;DHT22;32289;42.688;23.330;2023-05-10T18:45:47;10.10;99.90
46562;DHT22;32289;42.688;23.330;2023-05-10T18:49:30;10.10;99.90
46562;DHT22;32289;42.688;23.330;2023-05-10T18:53:11;10.10;99.90
46562;DHT22;32289;42.688;23.330;2023-05-10T18:56:52;10.00;99.90
46562;DHT22;32289;42.688;23.330;2023-05-10T19:00:32;10.10;99.90
46562;DHT22;32289;42.688;23.330;2023-05-10T19:04:13;10.00;99.90
46562;DHT22;32289;42.688;23.330;2023-05-10T19:07:55;10.00;99.90
46562;DHT22;32289;42.688;23.330;2023-05-10T19:11:35;10.00;99.90
46562;DHT22;32289;42.688;23.330;2023-05-10T19:15:16;10.10;99.90
46562;DHT22;32289;42.688;23.330;2023-05-10T19:18:57;10.10;99.90
46562;DHT22;32289;42.688;23.330;2023-05-10T19:22:37;10.10;99.90
46562;DHT22;32289;42.688;23.330;2023-05-10T19:26:18;10.00;99.90
46562;DHT22;32289;42.688;23.330;2023-05-10T19:29:59;10.10;99.90
46562;DHT22;32289;42.688;23.330;2023-05-10T19:33:40;10.10;99.90
46562;DHT22;32289;42.688;23.330;2023-05-10T19:37:21;10.00;99.90
46562;DHT22;32289;42.688;23.330;2023-05-10T19:41:02;10.10;99.90
46562;DHT22;32289;42.688;23.330;2023-05-10T19:44:43;10.10;99.90
46562;DHT22;32289;42.688;23.330;2023-05-10T19:48:24;10.10;99.90
46562;DHT22;32289;42.688;23.330;2023-05-10T19:52:05;10.00;99.90
46562;DHT22;32289;42.688;23.330;2023-05-10T19:55:47;10.00;99.90
46562;DHT22;32289;42.688;23.330;2023-05-10T19:59:28;10.00;99.90
46562;DHT22;32289;42.688;23.330;2023-05-10T20:03:09;9.90;99.90
46562;DHT22;32289;42.688;23.330;2023-05-10T20:06:50;9.90;99.90
46562;DHT22;32289;42.688;23.330;2023-05-10T20:10:30;9.90;99.90
46562;DHT22;32289;42.688;23.330;2023-05-10T20:14:11;9.80;99.90
46562;DHT22;32289;42.688;23.330;2023-05-10T20:17:52;9.80;99.90
46562;DHT22;32289;42.688;23.330;2023-05-10T20:21:33;9.80;99.90
46562;DHT22;32289;42.688;23.330;2023-05-10T20:25:15;9.70;99.90
46562;DHT22;32289;42.688;23.330;2023-05-10T20:28:56;9.80;99.90
46562;DHT22;32289;42.688;23.330;2023-05-10T20:32:37;9.70;99.90
46562;DHT22;32289;42.688;23.330;2023-05-10T20:36:18;9.80;99.90
46562;DHT22;32289;42.688;23.330;2023-05-10T20:39:59;9.70;99.90
46562;DHT22;32289;42.688;23.330;2023-05-10T20:43:40;9.80;99.90
46562;DHT22;32289;42.688;23.330;2023-05-10T20:47:21;9.70;99.90
46562;DHT22;32289;42.688;23.330;2023-05-10T20:51:05;9.70;99.90
46562;DHT22;32289;42.688;23.330;2023-05-10T20:54:48;9.70;99.90
46562;DHT22;32289;42.688;23.330;2023-05-10T20:58:29;9.70;99.90
46562;DHT22;32289;42.688;23.330;2023-05-10T21:02:10;9.70;99.90
46562;DHT22;32289;42.688;23.330;2023-05-10T21:05:51;9.70;99.90
46562;DHT22;32289;42.688;23.330;2023-05-10T21:09:31;9.70;99.90
46562;DHT22;32289;42.688;23.330;2023-05-10T21:13:14;9.80;99.90
46562;DHT22;32289;42.688;23.330;2023-05-10T21:16:54;9.70;99.90
46562;DHT22;32289;42.688;23.330;2023-05-10T21:20:35;9.80;99.90
46562;DHT22;32289;42.688;23.330;2023-05-10T21:24:16;9.80;99.90
46562;DHT22;32289;42.688;23.330;2023-05-10T21:27:57;9.70;99.90
46562;DHT22;32289;42.688;23.330;2023-05-10T21:31:37;9.60;99.90
46562;DHT22;32289;42.688;23.330;2023-05-10T21:35:18;9.60;99.90
46562;DHT22;32289;42.688;23.330;2023-05-10T21:38:59;9.70;99.90
46562;DHT22;32289;42.688;23.330;2023-05-10T21:42:40;9.70;99.90
46562;DHT22;32289;42.688;23.330;2023-05-10T21:46:21;9.70;99.90
46562;DHT22;32289;42.688;23.330;2023-05-10T21:50:02;9.70;99.90
46562;DHT22;32289;42.688;23.330;2023-05-10T21:53:43;9.70;99.90
46562;DHT22;32289;42.688;23.330;2023-05-10T21:57:23;9.70;99.90
46562;DHT22;32289;42.688;23.330;2023-05-10T22:01:04;9.70;99.90
46562;DHT22;32289;42.688;23.330;2023-05-10T22:04:45;9.70;99.90
46562;DHT22;32289;42.688;23.330;2023-05-10T22:08:26;9.60;99.90
46562;DHT22;32289;42.688;23.330;2023-05-10T22:12:06;9.60;99.90
46562;DHT22;32289;42.688;23.330;2023-05-10T22:15:47;9.70;99.90
46562;DHT22;32289;42.688;23.330;2023-05-10T22:19:28;9.60;99.90
46562;DHT22;32289;42.688;23.330;2023-05-10T22:23:08;9.60;99.90
46562;DHT22;32289;42.688;23.330;2023-05-10T22:26:49;9.60;99.90
46562;DHT22;32289;42.688;23.330;2023-05-10T22:30:32;9.60;99.90
46562;DHT22;32289;42.688;23.330;2023-05-10T22:34:14;9.60;99.90
46562;DHT22;32289;42.688;23.330;2023-05-10T22:37:54;9.60;99.90
46562;DHT22;32289;42.688;23.330;2023-05-10T22:41:35;9.60;99.90
46562;DHT22;32289;42.688;23.330;2023-05-10T22:45:15;9.50;99.90
46562;DHT22;32289;42.688;23.330;2023-05-10T22:48:57;9.50;99.90
46562;DHT22;32289;42.688;23.330;2023-05-10T22:52:38;9.60;99.90
46562;DHT22;32289;42.688;23.330;2023-05-10T22:56:20;9.60;99.90
46562;DHT22;32289;42.688;23.330;2023-05-10T23:00:02;9.50;99.90
46562;DHT22;32289;42.688;23.330;2023-05-10T23:03:44;9.50;99.90
46562;DHT22;32289;42.688;23.330;2023-05-10T23:07:25;9.40;99.90
46562;DHT22;32289;42.688;23.330;2023-05-10T23:11:07;9.40;99.90
46562;DHT22;32289;42.688;23.330;2023-05-10T23:14:48;9.50;99.90
46562;DHT22;32289;42.688;23.330;2023-05-10T23:18:28;9.50;99.90
46562;DHT22;32289;42.688;23.330;2023-05-10T23:22:09;9.50;99.90
46562;DHT22;32289;42.688;23.330;2023-05-10T23:25:50;9.40;99.90
46562;DHT22;32289;42.688;23.330;2023-05-10T23:29:30;9.50;99.90
46562;DHT22;32289;42.688;23.330;2023-05-10T23:33:11;9.40;99.90
46562;DHT22;32289;42.688;23.330;2023-05-10T23:36:53;9.40;99.90
46562;DHT22;32289;42.688;23.330;2023-05-10T23:40:34;9.40;99.90
46562;DHT22;32289;42.688;23.330;2023-05-10T23:44:15;9.30;99.90
46562;DHT22;32289;42.688;23.330;2023-05-10T23:47:56;9.30;99.90
46562;DHT22;32289;42.688;23.330;2023-05-10T23:51:36;9.40;99.90
46562;DHT22;32289;42.688;23.330;2023-05-10T23:55:17;9.40;99.90
46562;DHT22;32289;42.688;23.330;2023-05-10T23:58:57;9.30;99.90
